Accueil
METAR-TAF:

METAR-TAF

Aéroports :

Aigen im Ennstal, Autriche

latitude: 47-32N, longitude: 014-08E, altitude: 638 m

METAR: absent

Heure: 12:06 (10:06 UTC)

Prévision

Le bulletin a été fait il y a 25 heures et 51 minutes, à 08:15 UTC
Prévision valable du 29 à 09 UTC au 29 à 18 UTC
Vent 3 kt de direction variable
Visibilité 10 km ou plus
Quelques nuages à une hauteur de 1200 ft
Nuages fragmentés à une hauteur de 5000 ft
Temporairement
du 29 à 09 UTC au 29 à 18 UTC
Vent 5 kt de sud-ouest
Quelques nuages à une hauteur de 1200 ft
Nuages épars à une hauteur de 2200 ft
Nuages fragmentés à une hauteur de 4500 ft

TAF: LOXA 290815Z 2909/2918 VRB03KT 9999 FEW012 BKN050 TEMPO 2909/2918 23005KT FEW012 SCT022 BKN045

Observations et prévisions météorologiques de plus de 4000 aéroports (messages METAR et TAF).

Les stations disponibles sont représentées par des disques jaunes et rouges sur la carte.

Passer la souris dessus pour voir le nom de la station.

Cliquer dessus pour voir les observations et prévisions météorologiques.

Pour changer de carte: cliquez sur les boutons verts avec une croix noire pour zoomer, sur le bouton vert avec un tiret pour effectuer un zoom arrière, ou sur les flèches vertes pour les cartes adjacentes.


METAR-TAF: